createdAt,value
2022-11-17T00:01:44.266Z,0.00
2022-11-17T00:04:14.528Z,0.00
2022-11-17T00:06:44.762Z,0.00
2022-11-17T00:09:19.564Z,0.00
2022-11-17T00:12:07.331Z,0.00
2022-11-17T00:14:41.191Z,0.00
2022-11-17T00:17:13.455Z,0.00
2022-11-17T00:20:00.693Z,-0.10
2022-11-17T00:22:34.731Z,-0.10
2022-11-17T00:25:06.701Z,-0.10
2022-11-17T00:27:37.027Z,-0.10
2022-11-17T00:30:08.257Z,-0.10
2022-11-17T00:32:58.097Z,-0.10
2022-11-17T00:35:28.226Z,-0.10
2022-11-17T00:38:12.795Z,-0.10
2022-11-17T00:40:45.418Z,-0.10
2022-11-17T00:43:16.439Z,0.00
2022-11-17T00:45:47.427Z,-0.10
2022-11-17T00:48:17.554Z,-0.10
2022-11-17T00:50:47.710Z,-0.10
2022-11-17T00:53:17.808Z,0.00
2022-11-17T00:55:49.557Z,0.00
2022-11-17T00:58:19.788Z,0.00
2022-11-17T01:00:51.936Z,0.00
2022-11-17T01:03:22.270Z,0.00
2022-11-17T01:05:52.415Z,-0.10
2022-11-17T01:08:22.699Z,0.00
2022-11-17T01:10:55.163Z,-0.10
2022-11-17T01:13:25.287Z,-0.10
2022-11-17T01:15:56.572Z,-0.10
2022-11-17T01:18:26.688Z,-0.10
2022-11-17T01:20:56.836Z,-0.30
2022-11-17T01:23:26.948Z,-0.40
2022-11-17T01:26:04.256Z,-0.60
2022-11-17T01:28:36.162Z,-0.70
2022-11-17T01:31:09.870Z,-0.90
2022-11-17T01:33:40.988Z,-1.00
2022-11-17T01:36:14.857Z,-1.10
2022-11-17T01:38:45.664Z,-1.10
2022-11-17T01:41:20.930Z,-1.20
2022-11-17T01:43:54.732Z,-1.20
2022-11-17T01:46:35.628Z,-1.20
2022-11-17T01:49:12.844Z,-1.30
2022-11-17T01:51:48.197Z,-1.40
2022-11-17T01:54:24.077Z,-1.40
2022-11-17T01:56:59.934Z,-1.40
2022-11-17T01:59:34.061Z,-1.30
2022-11-17T02:02:04.562Z,-1.20
2022-11-17T02:04:37.016Z,-1.10
2022-11-17T02:07:15.944Z,-1.00
2022-11-17T02:09:46.897Z,-0.90
2022-11-17T02:12:20.543Z,-0.80
2022-11-17T02:14:52.237Z,-0.80
2022-11-17T02:17:23.587Z,-0.70
2022-11-17T02:19:59.034Z,-0.60
2022-11-17T02:23:01.856Z,-0.60
2022-11-17T02:26:08.468Z,-0.60
2022-11-17T02:28:42.272Z,-0.50
2022-11-17T02:31:27.200Z,-0.50
2022-11-17T02:34:02.261Z,-0.40
2022-11-17T02:36:39.362Z,-0.40
2022-11-17T02:39:16.297Z,-0.40
2022-11-17T02:41:55.451Z,-0.40
2022-11-17T02:44:30.458Z,-0.40
2022-11-17T02:47:05.319Z,-0.40
2022-11-17T02:49:39.553Z,-0.40
2022-11-17T02:52:12.088Z,-0.40
2022-11-17T02:54:42.242Z,-0.50
2022-11-17T02:57:29.974Z,-0.50
2022-11-17T03:00:04.477Z,-0.50
2022-11-17T03:02:56.624Z,-0.50
2022-11-17T03:05:31.527Z,-0.50
2022-11-17T03:08:14.246Z,-0.50
2022-11-17T03:10:52.561Z,-0.50
2022-11-17T03:13:28.941Z,-0.60
2022-11-17T03:16:12.343Z,-0.60
2022-11-17T03:18:53.087Z,-0.60
2022-11-17T03:21:29.568Z,-0.70
2022-11-17T03:24:07.905Z,-0.70
2022-11-17T03:26:41.017Z,-0.70
2022-11-17T03:29:16.248Z,-0.80
2022-11-17T03:31:50.491Z,-0.90
2022-11-17T03:34:26.996Z,-1.00
2022-11-17T03:37:01.197Z,-1.20
2022-11-17T03:39:34.744Z,-1.30
2022-11-17T03:42:09.394Z,-1.40
2022-11-17T03:44:44.855Z,-1.50
2022-11-17T03:50:14.731Z,-1.80
2022-11-17T03:52:46.476Z,-1.90
2022-11-17T03:55:17.544Z,-2.00
2022-11-17T03:57:54.266Z,-2.10
2022-11-17T04:00:24.491Z,-2.10
2022-11-17T04:03:00.819Z,-2.20
2022-11-17T04:05:30.966Z,-2.20
2022-11-17T04:08:01.144Z,-2.20
2022-11-17T04:10:31.204Z,-2.30
2022-11-17T04:13:18.485Z,-2.30
2022-11-17T04:16:02.266Z,-2.40
2022-11-17T04:18:33.992Z,-2.50
2022-11-17T04:21:04.144Z,-2.50
2022-11-17T04:23:34.488Z,-2.60
2022-11-17T04:26:21.835Z,-2.60
2022-11-17T04:28:53.144Z,-2.50
2022-11-17T04:31:27.009Z,-2.60
2022-11-17T04:34:00.078Z,-2.50
2022-11-17T04:36:32.608Z,-2.40
2022-11-17T04:39:02.969Z,-2.30
2022-11-17T04:41:50.037Z,-2.20
2022-11-17T04:44:20.749Z,-2.10
2022-11-17T04:46:51.495Z,-2.00
2022-11-17T04:49:24.092Z,-1.90
2022-11-17T04:51:55.503Z,-1.80
2022-11-17T04:54:27.291Z,-1.80
2022-11-17T04:56:57.904Z,-1.80
2022-11-17T04:59:28.546Z,-1.70
2022-11-17T05:02:04.139Z,-1.70
2022-11-17T05:04:54.322Z,-1.70
2022-11-17T05:07:24.937Z,-1.70
2022-11-17T05:09:55.054Z,-1.70
2022-11-17T05:12:42.015Z,-1.80
2022-11-17T05:15:32.796Z,-1.70
2022-11-17T05:18:01.619Z,-1.70
2022-11-17T05:20:35.572Z,-1.70
2022-11-17T05:23:22.559Z,-1.70
2022-11-17T05:25:56.312Z,-1.60
2022-11-17T05:28:26.885Z,-1.60
2022-11-17T05:30:57.839Z,-1.60
2022-11-17T05:33:27.858Z,-1.60
2022-11-17T05:35:59.664Z,-1.60
2022-11-17T05:38:29.819Z,-1.60
2022-11-17T05:40:59.857Z,-1.60
2022-11-17T05:43:29.947Z,-1.60
2022-11-17T05:45:59.991Z,-1.60
2022-11-17T05:48:30.065Z,-1.50
2022-11-17T05:51:01.984Z,-1.50
2022-11-17T05:53:33.093Z,-1.50
2022-11-17T05:56:15.304Z,-1.50
2022-11-17T05:58:49.270Z,-1.50
2022-11-17T06:01:21.994Z,-1.50
2022-11-17T06:03:55.242Z,-1.50
2022-11-17T06:06:27.373Z,-1.50
2022-11-17T06:08:58.036Z,-1.50
2022-11-17T06:11:28.142Z,-1.50
2022-11-17T06:13:58.173Z,-1.50
2022-11-17T06:16:31.719Z,-1.40
2022-11-17T06:19:08.196Z,-1.40
2022-11-17T06:22:09.794Z,-1.40
2022-11-17T06:24:30.262Z,-1.40
2022-11-17T06:27:00.413Z,-1.40
2022-11-17T06:29:32.250Z,-1.40
2022-11-17T06:32:02.631Z,-1.40
2022-11-17T06:34:34.910Z,-1.40
2022-11-17T06:37:06.613Z,-1.40
2022-11-17T06:39:36.986Z,-1.40
2022-11-17T06:42:07.179Z,-1.40
2022-11-17T06:44:37.406Z,-1.40
2022-11-17T06:47:07.632Z,-1.40
2022-11-17T06:49:37.713Z,-1.30
2022-11-17T06:52:11.728Z,-1.40
2022-11-17T06:54:41.798Z,-1.30
2022-11-17T06:57:12.011Z,-1.30
2022-11-17T06:59:42.059Z,-1.30
2022-11-17T07:02:12.159Z,-1.30
2022-11-17T07:04:42.780Z,-1.30
2022-11-17T07:07:15.169Z,-1.30
2022-11-17T07:09:45.413Z,-1.30
2022-11-17T07:12:17.250Z,-1.30
2022-11-17T07:14:47.352Z,-1.20
2022-11-17T07:17:17.603Z,-1.20
2022-11-17T07:19:47.636Z,-1.20
2022-11-17T07:22:19.338Z,-1.20
2022-11-17T07:24:49.369Z,-1.20
2022-11-17T07:27:19.496Z,-1.20
2022-11-17T07:29:49.668Z,-1.20
2022-11-17T07:32:20.282Z,-1.20
2022-11-17T07:34:50.424Z,-1.20
2022-11-17T07:37:22.582Z,-1.20
2022-11-17T07:39:52.689Z,-1.20
2022-11-17T07:42:22.805Z,-1.20
2022-11-17T07:44:52.851Z,-1.20
2022-11-17T07:47:23.565Z,-1.20
2022-11-17T07:49:54.032Z,-1.20
2022-11-17T07:52:26.116Z,-1.20
2022-11-17T07:54:56.146Z,-1.30
2022-11-17T07:57:26.340Z,-1.30
2022-11-17T07:59:56.480Z,-1.30
2022-11-17T08:02:26.582Z,-1.30
2022-11-17T08:04:56.688Z,-1.30
2022-11-17T08:07:28.391Z,-1.30
2022-11-17T08:09:58.546Z,-1.30
2022-11-17T08:12:28.674Z,-1.30
2022-11-17T08:14:58.787Z,-1.30
2022-11-17T08:17:30.042Z,-1.30
2022-11-17T08:20:00.163Z,-1.30
2022-11-17T08:22:31.936Z,-1.30
2022-11-17T08:25:01.982Z,-1.30
2022-11-17T08:27:32.083Z,-1.30
2022-11-17T08:30:02.298Z,-1.30
2022-11-17T08:32:32.942Z,-1.30
2022-11-17T08:35:04.641Z,-1.30
2022-11-17T08:37:36.617Z,-1.30
2022-11-17T08:40:07.153Z,-1.30
2022-11-17T08:42:37.415Z,-1.30
2022-11-17T08:45:08.266Z,-1.30
2022-11-17T08:47:38.574Z,-1.40
2022-11-17T08:50:09.888Z,-1.40
2022-11-17T08:52:41.544Z,-1.40
2022-11-17T08:55:12.501Z,-1.40
2022-11-17T08:57:42.878Z,-1.40
2022-11-17T09:00:14.330Z,-1.40
2022-11-17T09:02:44.399Z,-1.30
2022-11-17T09:05:14.948Z,-1.30
2022-11-17T09:07:47.112Z,-1.30
2022-11-17T09:10:17.911Z,-1.30
2022-11-17T09:12:48.012Z,-1.30
2022-11-17T09:15:18.151Z,-1.30
2022-11-17T09:17:50.051Z,-1.30
2022-11-17T09:20:21.227Z,-1.30
2022-11-17T09:22:53.112Z,-1.30
2022-11-17T09:25:23.260Z,-1.40
2022-11-17T09:27:53.358Z,-1.40
2022-11-17T09:30:23.835Z,-1.40
2022-11-17T09:32:56.444Z,-1.40
2022-11-17T09:35:26.551Z,-1.50
2022-11-17T09:38:02.336Z,-1.50
2022-11-17T09:40:37.656Z,-1.50
2022-11-17T09:43:11.074Z,-1.50
2022-11-17T09:45:42.214Z,-1.50
2022-11-17T09:48:40.155Z,-1.50
2022-11-17T09:51:10.514Z,-1.50
2022-11-17T09:53:48.450Z,-1.50
2022-11-17T09:56:19.541Z,-1.50
2022-11-17T09:58:53.375Z,-1.50
2022-11-17T10:01:24.602Z,-1.50
2022-11-17T10:03:56.601Z,-1.50
2022-11-17T10:06:29.318Z,-1.60
2022-11-17T10:09:04.762Z,-1.50
2022-11-17T10:11:37.765Z,-1.60
2022-11-17T10:14:16.230Z,-1.60
2022-11-17T10:16:51.515Z,-1.60
2022-11-17T10:19:28.473Z,-1.60
2022-11-17T10:22:16.348Z,-1.60
2022-11-17T10:24:51.408Z,-1.60
2022-11-17T10:27:25.159Z,-1.60
2022-11-17T10:30:08.541Z,-1.60
2022-11-17T10:32:46.917Z,-1.50
2022-11-17T10:35:20.764Z,-1.50
2022-11-17T10:37:57.661Z,-1.60
2022-11-17T10:40:33.193Z,-1.50
2022-11-17T10:43:07.759Z,-1.50
2022-11-17T10:45:37.970Z,-1.50
2022-11-17T10:48:32.529Z,-1.50
2022-11-17T10:51:04.026Z,-1.50
2022-11-17T10:53:44.949Z,-1.50
2022-11-17T10:56:19.927Z,-1.50
2022-11-17T10:59:05.198Z,-1.40
2022-11-17T11:01:38.608Z,-1.40
2022-11-17T11:04:27.614Z,-1.50
2022-11-17T11:07:10.842Z,-1.50
2022-11-17T11:09:47.160Z,-1.50
2022-11-17T11:12:24.293Z,-1.50
2022-11-17T11:14:58.839Z,-1.50
2022-11-17T11:17:31.529Z,-1.50
2022-11-17T11:20:02.409Z,-1.50
2022-11-17T11:22:39.277Z,-1.50
2022-11-17T11:25:20.487Z,-1.50
2022-11-17T11:28:12.289Z,-1.50
2022-11-17T11:30:50.066Z,-1.50
2022-11-17T11:33:35.925Z,-1.50
2022-11-17T11:36:29.938Z,-1.50
2022-11-17T11:39:06.485Z,-1.50
2022-11-17T11:42:07.734Z,-1.50
2022-11-17T11:44:57.989Z,-1.50
2022-11-17T11:47:45.099Z,-1.50
2022-11-17T11:50:19.330Z,-1.60
2022-11-17T11:52:53.554Z,-1.50
2022-11-17T11:55:27.882Z,-1.50
2022-11-17T11:58:06.323Z,-1.50
2022-11-17T12:00:39.114Z,-1.50
2022-11-17T12:03:21.804Z,-1.50
2022-11-17T12:06:28.054Z,-1.50
2022-11-17T12:09:08.244Z,-1.50
2022-11-17T12:11:59.458Z,-1.50
2022-11-17T12:14:30.910Z,-1.50
2022-11-17T12:17:09.439Z,-1.40
2022-11-17T12:19:57.821Z,-1.40
2022-11-17T12:22:51.913Z,-1.40
2022-11-17T12:25:24.662Z,-1.30
2022-11-17T12:27:55.555Z,-1.30
2022-11-17T12:30:57.999Z,-1.30
2022-11-17T12:34:09.547Z,-1.30
2022-11-17T12:36:40.026Z,-1.30
2022-11-17T12:39:47.843Z,-1.30
2022-11-17T12:42:18.064Z,-1.30
2022-11-17T12:45:00.838Z,-1.30
2022-11-17T12:47:32.813Z,-1.20
2022-11-17T12:50:31.982Z,-1.20
2022-11-17T12:53:34.675Z,-1.20
2022-11-17T12:56:25.985Z,-1.20
2022-11-17T12:59:05.583Z,-1.20
2022-11-17T13:01:44.958Z,-1.10
2022-11-17T13:04:17.432Z,-1.20
2022-11-17T13:07:02.783Z,-1.20
2022-11-17T13:09:35.881Z,-1.20
2022-11-17T13:12:07.946Z,-1.10
2022-11-17T13:14:39.303Z,-1.10
2022-11-17T13:17:14.458Z,-1.20
2022-11-17T13:19:44.744Z,-1.20
2022-11-17T13:22:19.321Z,-1.20
2022-11-17T13:24:52.878Z,-1.10
2022-11-17T13:27:25.963Z,-1.00
2022-11-17T13:30:16.403Z,-0.90
2022-11-17T13:32:47.307Z,-0.80
2022-11-17T13:35:25.556Z,-0.70
2022-11-17T13:38:19.994Z,-0.80
2022-11-17T13:40:54.118Z,-0.70
2022-11-17T13:43:26.009Z,-0.60
2022-11-17T13:45:57.424Z,-0.50
2022-11-17T13:48:34.473Z,-0.50
2022-11-17T13:51:39.643Z,-0.50
2022-11-17T13:54:18.315Z,-0.50
2022-11-17T13:56:56.713Z,-0.60
2022-11-17T13:59:28.901Z,-0.70
2022-11-17T14:02:31.911Z,-0.80
2022-11-17T14:05:24.859Z,-0.90
2022-11-17T14:07:57.710Z,-0.90
2022-11-17T14:10:36.342Z,-0.90
2022-11-17T14:13:35.187Z,-0.80
2022-11-17T14:16:05.268Z,-0.80
2022-11-17T14:18:38.030Z,-0.80
2022-11-17T14:21:10.924Z,-0.70
2022-11-17T14:23:41.581Z,-0.50
2022-11-17T14:26:29.523Z,-0.30
2022-11-17T14:29:03.064Z,-0.30
2022-11-17T14:31:34.548Z,-0.30
2022-11-17T14:34:04.784Z,-0.30
2022-11-17T14:36:35.968Z,-0.20
2022-11-17T14:39:06.667Z,-0.10
2022-11-17T14:41:36.745Z,0.00
2022-11-17T14:44:08.820Z,0.20
2022-11-17T14:46:39.486Z,0.50
2022-11-17T14:49:09.662Z,0.90
2022-11-17T14:51:40.395Z,1.20
2022-11-17T14:54:10.468Z,1.40
2022-11-17T14:56:40.529Z,1.40
2022-11-17T14:59:13.704Z,1.30
2022-11-17T15:01:44.097Z,1.30
2022-11-17T15:07:08.126Z,1.00
2022-11-17T15:09:38.215Z,0.90
2022-11-17T15:12:08.760Z,0.70
2022-11-17T15:14:41.229Z,0.50
2022-11-17T15:17:14.461Z,0.50
2022-11-17T15:19:45.170Z,0.60
2022-11-17T15:22:15.231Z,0.80
2022-11-17T15:24:45.593Z,0.80
2022-11-17T15:27:16.020Z,0.70
2022-11-17T15:29:48.214Z,0.60
2022-11-17T15:32:18.478Z,0.60
2022-11-17T15:34:48.648Z,0.70
2022-11-17T15:37:18.741Z,0.60
2022-11-17T15:39:49.289Z,0.50
2022-11-17T15:42:19.308Z,0.50
2022-11-17T15:44:51.044Z,0.40
2022-11-17T15:47:21.103Z,0.50
2022-11-17T15:49:51.287Z,0.40
2022-11-17T15:52:41.511Z,0.30
2022-11-17T15:55:11.847Z,0.30
2022-11-17T15:57:42.032Z,0.40
2022-11-17T16:00:15.799Z,0.50
2022-11-17T16:02:45.824Z,0.50
2022-11-17T16:05:16.007Z,0.70
2022-11-17T16:10:16.984Z,0.50
2022-11-17T16:12:47.111Z,0.20
2022-11-17T16:15:19.019Z,0.00
2022-11-17T16:17:49.138Z,-0.20
2022-11-17T16:20:19.747Z,-0.30
2022-11-17T16:22:49.942Z,-0.20
2022-11-17T16:25:20.027Z,-0.20
2022-11-17T16:27:50.004Z,0.00
2022-11-17T16:30:22.224Z,0.30
2022-11-17T16:32:52.571Z,0.60
2022-11-17T16:35:22.864Z,0.70
2022-11-17T16:37:54.771Z,0.50
2022-11-17T16:40:25.010Z,0.40
2022-11-17T16:42:55.320Z,0.20
2022-11-17T16:45:27.490Z,0.30
2022-11-17T16:47:57.593Z,0.40
2022-11-17T16:50:27.637Z,0.40
2022-11-17T16:52:57.737Z,0.40
2022-11-17T16:55:28.316Z,0.40
2022-11-17T16:57:58.333Z,0.20
2022-11-17T17:00:30.428Z,0.10
2022-11-17T17:03:00.663Z,-0.20
2022-11-17T17:05:32.350Z,-0.10
2022-11-17T17:08:02.435Z,-0.30
2022-11-17T17:10:32.540Z,-0.30
2022-11-17T17:13:02.886Z,-0.50
2022-11-17T17:15:36.011Z,-0.60
2022-11-17T17:18:06.472Z,-0.50
2022-11-17T17:20:37.331Z,-0.50
2022-11-17T17:23:08.058Z,-0.40
2022-11-17T17:25:38.336Z,-0.50
2022-11-17T17:28:08.574Z,-0.20
2022-11-17T17:30:40.811Z,-0.20
2022-11-17T17:33:10.854Z,-0.30
2022-11-17T17:35:41.024Z,-0.20
2022-11-17T17:38:11.045Z,-0.20
2022-11-17T17:40:41.100Z,-0.30
2022-11-17T17:43:11.314Z,-0.20
2022-11-17T17:45:43.334Z,-0.50
2022-11-17T17:48:13.440Z,-0.60
2022-11-17T17:50:43.539Z,-0.50
2022-11-17T17:53:13.643Z,-0.20
2022-11-17T17:55:43.708Z,0.00
2022-11-17T17:58:13.892Z,0.10
2022-11-17T18:00:45.606Z,0.00
2022-11-17T18:03:15.740Z,0.10
2022-11-17T18:05:46.953Z,-0.10
2022-11-17T18:08:17.095Z,-0.10
2022-11-17T18:10:47.218Z,-0.20
2022-11-17T18:13:17.886Z,0.00
2022-11-17T18:15:50.134Z,0.10
2022-11-17T18:18:20.751Z,0.30
2022-11-17T18:20:51.222Z,0.30
2022-11-17T18:23:21.883Z,0.30
2022-11-17T18:25:52.070Z,0.40
2022-11-17T18:28:22.411Z,0.40
2022-11-17T18:30:54.671Z,0.20
2022-11-17T18:33:25.236Z,0.00
2022-11-17T18:35:55.889Z,-0.10
2022-11-17T18:38:25.947Z,-0.20
2022-11-17T18:41:04.893Z,-0.30
2022-11-17T18:43:35.424Z,-0.40
2022-11-17T18:46:08.800Z,-0.20
2022-11-17T18:48:40.747Z,0.00
2022-11-17T18:51:20.992Z,0.10
2022-11-17T18:53:52.179Z,0.00
2022-11-17T18:56:24.217Z,-0.20
2022-11-17T18:58:54.679Z,-0.30
2022-11-17T19:01:28.577Z,-0.20
2022-11-17T19:04:01.072Z,-0.20
2022-11-17T19:06:32.473Z,0.00
2022-11-17T19:09:03.223Z,-0.10
2022-11-17T19:11:34.324Z,-0.20
2022-11-17T19:14:05.827Z,-0.30
2022-11-17T19:16:43.980Z,-0.40
2022-11-17T19:19:16.033Z,-0.40
2022-11-17T19:21:47.078Z,-0.60
2022-11-17T19:24:17.663Z,-0.70
2022-11-17T19:26:48.204Z,-0.70
2022-11-17T19:29:19.474Z,-0.60
2022-11-17T19:31:53.132Z,-0.50
2022-11-17T19:34:23.174Z,-0.60
2022-11-17T19:36:53.597Z,-0.80
2022-11-17T19:39:23.607Z,-0.90
2022-11-17T19:41:54.081Z,-0.90
2022-11-17T19:44:24.137Z,-1.10
2022-11-17T19:46:56.231Z,-1.20
2022-11-17T19:49:26.281Z,-1.10
2022-11-17T19:51:56.366Z,-0.80
2022-11-17T19:54:26.475Z,-0.50
2022-11-17T19:56:56.609Z,-0.20
2022-11-17T19:59:27.061Z,-0.20
2022-11-17T20:01:58.803Z,-0.20
2022-11-17T20:04:28.857Z,-0.30
2022-11-17T20:06:58.917Z,-0.20
2022-11-17T20:09:29.018Z,-0.30
2022-11-17T20:11:59.239Z,-0.20
2022-11-17T20:14:29.268Z,-0.20
2022-11-17T20:17:00.989Z,-0.20
2022-11-17T20:19:31.569Z,-0.10
2022-11-17T20:22:02.255Z,-0.10
2022-11-17T20:24:32.289Z,-0.30
2022-11-17T20:27:02.409Z,-0.30
2022-11-17T20:29:32.872Z,-0.50
2022-11-17T20:32:04.997Z,-0.50
2022-11-17T20:34:35.770Z,-0.60
2022-11-17T20:37:05.905Z,-0.70
2022-11-17T20:39:35.950Z,-0.80
2022-11-17T20:42:06.635Z,-0.90
2022-11-17T20:44:36.652Z,-1.00
2022-11-17T20:47:08.521Z,-1.00
2022-11-17T20:49:38.536Z,-1.00
2022-11-17T20:52:13.177Z,-1.10
2022-11-17T20:54:43.653Z,-1.30
2022-11-17T20:57:13.761Z,-1.60
2022-11-17T20:59:44.202Z,-1.70
2022-11-17T21:02:22.042Z,-1.80
2022-11-17T21:04:56.146Z,-1.80
2022-11-17T21:07:26.883Z,-1.90
2022-11-17T21:09:57.264Z,-1.90
2022-11-17T21:12:27.876Z,-1.90
2022-11-17T21:14:58.111Z,-2.00
2022-11-17T21:17:46.895Z,-2.20
2022-11-17T21:20:17.242Z,-2.30
2022-11-17T21:22:47.390Z,-2.40
2022-11-17T21:25:17.959Z,-2.40
2022-11-17T21:27:48.312Z,-2.50
2022-11-17T21:30:18.933Z,-2.60
2022-11-17T21:32:51.292Z,-2.70
2022-11-17T21:35:21.365Z,-2.80
2022-11-17T21:37:51.532Z,-2.80
2022-11-17T21:40:22.070Z,-2.90
2022-11-17T21:42:52.643Z,-2.90
2022-11-17T21:45:22.798Z,-2.90
2022-11-17T21:47:59.196Z,-3.00
2022-11-17T21:50:30.032Z,-3.10
2022-11-17T21:53:01.173Z,-3.10
2022-11-17T21:55:32.248Z,-3.20
2022-11-17T21:58:02.395Z,-3.30
2022-11-17T22:00:32.612Z,-3.40
2022-11-17T22:03:04.970Z,-3.50
2022-11-17T22:05:35.272Z,-3.50
2022-11-17T22:08:08.340Z,-3.60
2022-11-17T22:10:39.920Z,-3.70
2022-11-17T22:13:10.397Z,-3.70
2022-11-17T22:15:40.703Z,-3.70
2022-11-17T22:18:12.503Z,-3.80
2022-11-17T22:20:42.603Z,-3.90
2022-11-17T22:23:12.699Z,-4.00
2022-11-17T22:25:45.556Z,-4.10
2022-11-17T22:28:16.151Z,-4.10
2022-11-17T22:30:46.636Z,-4.20
2022-11-17T22:33:18.317Z,-4.40
2022-11-17T22:35:48.724Z,-4.60
2022-11-17T22:38:19.471Z,-4.60
2022-11-17T22:40:49.575Z,-4.80
2022-11-17T22:43:19.956Z,-4.90
2022-11-17T22:45:50.199Z,-4.80
2022-11-17T22:48:23.400Z,-4.70
2022-11-17T22:50:54.716Z,-4.60
2022-11-17T22:53:24.766Z,-4.50
2022-11-17T22:55:54.854Z,-4.50
2022-11-17T22:58:24.967Z,-4.50
2022-11-17T23:00:55.912Z,-4.40
2022-11-17T23:03:27.831Z,-4.50
2022-11-17T23:05:57.932Z,-4.50
2022-11-17T23:08:27.975Z,-4.60
2022-11-17T23:11:36.420Z,-4.70
2022-11-17T23:13:53.265Z,-4.70
2022-11-17T23:16:23.382Z,-4.80
2022-11-17T23:18:57.272Z,-4.80
2022-11-17T23:21:27.501Z,-4.90
2022-11-17T23:23:58.613Z,-5.00
2022-11-17T23:26:28.769Z,-5.10
2022-11-17T23:28:59.042Z,-5.20
2022-11-17T23:31:30.327Z,-5.10
2022-11-17T23:34:02.091Z,-5.20
2022-11-17T23:36:32.151Z,-5.30
2022-11-17T23:39:02.389Z,-5.50
2022-11-17T23:41:32.478Z,-5.50
2022-11-17T23:44:02.633Z,-5.70
2022-11-17T23:46:32.690Z,-5.80
2022-11-17T23:49:04.797Z,-6.00
2022-11-17T23:51:35.519Z,-6.00
2022-11-17T23:54:05.850Z,-6.00
2022-11-17T23:56:36.449Z,-6.00
2022-11-17T23:59:07.717Z,-6.00
